Time;durP1;ratioP1;P1;durP2;ratioP2;P2;SDS_P1;SDS_P2;PMS_P1;PMS_P2;Temp;Humidity;BMP_temperature;BMP_pressure;BME280_temperature;BME280_humidity;BME280_pressure;Samples;Min_cycle;Max_cycle;Signal;HPM_P1;HPM_P2
2023/06/03 00:00:15;;;;;;;9.67;6.37;;;11.60;99.90;;;;;;5120293;28;20455;-61
2023/06/03 00:02:42;;;;;;;11.20;5.40;;;11.60;99.90;;;;;;5119607;28;20564;-62
2023/06/03 00:05:10;;;;;;;9.97;6.53;;;11.60;99.90;;;;;;5120242;28;20463;-62
2023/06/03 00:07:39;;;;;;;8.47;6.57;;;11.50;99.90;;;;;;5120035;28;20795;-62
2023/06/03 00:10:07;;;;;;;9.70;6.40;;;11.50;99.90;;;;;;5120327;28;20466;-61
2023/06/03 00:12:34;;;;;;;16.33;6.70;;;11.50;99.90;;;;;;5119930;28;20519;-62
2023/06/03 00:15:01;;;;;;;10.67;6.20;;;11.40;99.90;;;;;;5119760;27;20911;-62
2023/06/03 00:17:30;;;;;;;7.50;6.20;;;11.40;99.90;;;;;;5119693;28;20474;-61
2023/06/03 00:20:06;;;;;;;9.13;7.47;;;11.40;99.90;;;;;;5120172;28;20533;-61
2023/06/03 00:22:35;;;;;;;10.03;6.00;;;11.30;99.90;;;;;;5120293;28;20486;-61
2023/06/03 00:25:03;;;;;;;13.13;6.87;;;11.20;99.90;;;;;;5119715;28;20464;-61
2023/06/03 00:27:30;;;;;;;7.37;5.50;;;11.20;99.90;;;;;;5119951;28;20470;-62
2023/06/03 00:29:58;;;;;;;6.53;5.80;;;11.20;99.90;;;;;;5119813;28;20468;-61
2023/06/03 00:32:25;;;;;;;6.03;5.30;;;11.10;99.90;;;;;;5119641;28;20487;-61
2023/06/03 00:34:52;;;;;;;9.70;6.23;;;11.10;1.00;;;;;;5119456;28;20771;-61
2023/06/03 00:37:19;;;;;;;8.40;6.20;;;11.10;99.90;;;;;;5119307;28;20459;-61
2023/06/03 00:39:46;;;;;;;8.80;6.20;;;11.10;1.00;;;;;;5119313;28;20462;-61
2023/06/03 00:42:15;;;;;;;9.43;7.47;;;11.10;1.00;;;;;;5119471;28;20486;-61
2023/06/03 00:44:42;;;;;;;14.63;7.57;;;11.10;1.00;;;;;;5118870;28;20460;-61
2023/06/03 00:47:09;;;;;;;13.03;7.30;;;11.10;1.00;;;;;;5119130;28;20469;-61
2023/06/03 00:49:37;;;;;;;11.27;6.93;;;11.10;1.00;;;;;;5119121;28;20489;-61
2023/06/03 00:52:05;;;;;;;8.33;6.30;;;11.00;1.00;;;;;;5119442;28;20932;-61
2023/06/03 00:54:32;;;;;;;10.17;6.73;;;11.00;1.00;;;;;;5119552;28;20458;-62
2023/06/03 00:57:03;;;;;;;9.40;7.07;;;11.00;1.00;;;;;;5119052;28;20455;-61
2023/06/03 00:59:32;;;;;;;14.40;7.30;;;10.90;1.00;;;;;;5118718;28;20554;-61
2023/06/03 01:01:59;;;;;;;9.10;7.10;;;10.90;1.00;;;;;;5118287;28;20491;-61
2023/06/03 01:04:29;;;;;;;10.30;6.37;;;10.90;1.00;;;;;;5119008;28;20891;-61
2023/06/03 01:07:07;;;;;;;11.20;7.27;;;10.90;1.00;;;;;;5118625;28;20470;-61
2023/06/03 01:09:46;;;;;;;13.23;7.67;;;10.80;1.00;;;;;;5118827;28;20474;-62
2023/06/03 01:12:25;;;;;;;11.20;7.23;;;10.80;1.00;;;;;;5119043;28;20459;-61
2023/06/03 01:14:58;;;;;;;11.37;7.10;;;10.80;1.00;;;;;;5118315;28;20466;-61
2023/06/03 01:17:29;;;;;;;8.80;6.50;;;10.70;1.00;;;;;;5118660;28;20554;-61
2023/06/03 01:19:58;;;;;;;10.97;7.50;;;10.70;1.00;;;;;;5118692;28;20471;-61
2023/06/03 01:22:26;;;;;;;10.93;7.00;;;10.70;1.00;;;;;;5118990;28;20455;-62
2023/06/03 01:25:06;;;;;;;12.50;7.20;;;10.70;1.00;;;;;;5118701;28;20528;-62
2023/06/03 01:27:33;;;;;;;9.77;6.67;;;10.70;1.00;;;;;;5118651;28;20523;-61
2023/06/03 01:30:01;;;;;;;13.63;7.40;;;10.70;1.00;;;;;;5118858;28;20872;-61
2023/06/03 01:32:28;;;;;;;12.97;7.10;;;10.70;1.00;;;;;;5118707;28;20459;-61
2023/06/03 01:34:56;;;;;;;11.30;7.50;;;10.60;1.00;;;;;;5118111;28;20460;-62
2023/06/03 01:37:24;;;;;;;12.90;6.30;;;10.60;1.00;;;;;;5118329;28;20467;-62
2023/06/03 01:39:52;;;;;;;10.80;7.60;;;10.60;1.00;;;;;;5117900;28;20467;-62
2023/06/03 01:42:20;;;;;;;11.17;7.57;;;10.50;21.50;;;;;;5118598;28;20817;-61
2023/06/03 01:44:48;;;;;;;13.50;7.87;;;10.50;39.70;;;;;;5118221;28;20924;-62
2023/06/03 01:47:16;;;;;;;11.13;9.13;;;10.50;24.10;;;;;;5118574;28;20934;-61
2023/06/03 01:49:43;;;;;;;8.83;6.90;;;10.50;21.40;;;;;;5118226;28;20463;-61
2023/06/03 01:52:10;;;;;;;10.20;7.70;;;10.50;4.60;;;;;;5118239;28;20466;-62
2023/06/03 01:54:37;;;;;;;13.13;6.87;;;10.50;23.60;;;;;;5117747;28;20947;-62
2023/06/03 01:57:05;;;;;;;9.07;6.30;;;10.50;34.40;;;;;;5118036;28;20462;-61
2023/06/03 01:59:34;;;;;;;11.47;7.00;;;10.50;1.00;;;;;;5118022;28;20460;-61
2023/06/03 02:02:01;;;;;;;13.30;8.30;;;10.40;1.00;;;;;;5117426;28;20487;-62
2023/06/03 02:04:28;;;;;;;12.00;7.00;;;10.40;1.00;;;;;;5118009;28;20889;-62
2023/06/03 02:06:58;;;;;;;10.50;7.37;;;10.30;8.50;;;;;;5117878;28;20459;-62
2023/06/03 02:09:27;;;;;;;14.13;8.23;;;10.30;51.30;;;;;;5118384;28;20460;-62
2023/06/03 02:11:54;;;;;;;9.80;8.07;;;10.30;88.60;;;;;;5118400;28;20460;-62
2023/06/03 02:14:22;;;;;;;18.70;8.97;;;10.30;61.30;;;;;;5118158;28;20575;-62
2023/06/03 02:16:50;;;;;;;8.90;7.93;;;10.30;1.00;;;;;;5117477;28;20462;-62
2023/06/03 02:19:20;;;;;;;9.07;7.57;;;10.20;1.00;;;;;;5118047;28;20460;-62
2023/06/03 02:21:48;;;;;;;10.10;7.80;;;10.20;1.00;;;;;;5117997;28;20837;-62
2023/06/03 02:24:16;;;;;;;9.27;7.90;;;10.20;1.00;;;;;;5117841;28;20460;-62
2023/06/03 02:26:49;;;;;;;9.13;6.83;;;10.20;1.00;;;;;;5118104;28;20463;-62
2023/06/03 02:29:18;;;;;;;12.13;8.67;;;10.20;1.00;;;;;;5117724;28;20463;-62
2023/06/03 02:31:45;;;;;;;13.23;8.50;;;10.20;1.00;;;;;;5118253;28;20458;-62
2023/06/03 02:34:14;;;;;;;10.17;7.97;;;10.10;92.20;;;;;;5117684;28;20491;-62
2023/06/03 02:36:42;;;;;;;10.23;8.57;;;10.10;1.80;;;;;;5117763;28;20460;-62
2023/06/03 02:39:09;;;;;;;9.90;6.97;;;10.10;1.00;;;;;;5117868;28;20906;-62
2023/06/03 02:41:37;;;;;;;10.63;7.33;;;10.10;1.00;;;;;;5117980;28;20899;-62
2023/06/03 02:44:04;;;;;;;10.00;8.13;;;10.10;1.00;;;;;;5118012;28;20455;-63
2023/06/03 02:46:31;;;;;;;10.17;7.37;;;10.00;1.00;;;;;;5117865;28;20441;-62
2023/06/03 02:48:59;;;;;;;11.40;7.80;;;10.10;1.00;;;;;;5117402;28;20452;-62
2023/06/03 02:51:27;;;;;;;12.30;7.43;;;10.10;1.00;;;;;;5118281;28;20464;-62
2023/06/03 02:53:54;;;;;;;15.43;7.60;;;10.10;1.00;;;;;;5121415;28;20491;-62
2023/06/03 02:56:22;;;;;;;11.53;8.47;;;10.10;1.00;;;;;;5121495;28;20839;-62
2023/06/03 02:58:50;;;;;;;12.60;7.47;;;10.10;1.00;;;;;;5121076;28;20470;-62
2023/06/03 03:01:19;;;;;;;12.53;8.17;;;9.90;1.00;;;;;;5121080;28;20491;-61
2023/06/03 03:03:46;;;;;;;12.90;7.90;;;9.90;1.00;;;;;;5121591;28;20455;-63
2023/06/03 03:06:15;;;;;;;8.43;7.43;;;9.90;1.00;;;;;;5121562;28;20467;-62
2023/06/03 03:08:45;;;;;;;8.87;7.70;;;9.90;1.00;;;;;;5120822;28;20516;-62
2023/06/03 03:11:13;;;;;;;14.27;8.93;;;9.90;1.00;;;;;;5121169;28;20463;-62
2023/06/03 03:13:40;;;;;;;8.90;8.00;;;9.80;1.00;;;;;;5120913;28;20586;-62
2023/06/03 03:16:08;;;;;;;10.57;7.30;;;9.80;1.00;;;;;;5121556;28;20558;-62
2023/06/03 03:18:35;;;;;;;9.90;8.23;;;9.90;1.00;;;;;;5120582;28;20466;-62
2023/06/03 03:21:02;;;;;;;10.37;7.73;;;9.80;1.00;;;;;;5121207;28;20455;-62
2023/06/03 03:23:30;;;;;;;12.33;8.40;;;9.80;1.00;;;;;;5120957;28;20899;-62
2023/06/03 03:26:01;;;;;;;8.67;7.00;;;9.80;1.00;;;;;;5121219;28;20455;-62
2023/06/03 03:28:28;;;;;;;10.97;7.30;;;9.80;1.00;;;;;;5121022;27;20515;-63
2023/06/03 03:30:56;;;;;;;12.27;8.13;;;9.70;1.00;;;;;;5120852;28;20760;-63
2023/06/03 03:33:24;;;;;;;12.93;8.43;;;9.70;1.00;;;;;;5120773;28;20578;-62
2023/06/03 03:35:52;;;;;;;10.90;7.83;;;9.70;1.00;;;;;;5120854;28;20467;-63
2023/06/03 03:38:20;;;;;;;11.70;8.20;;;9.70;1.00;;;;;;5120224;28;20514;-62
2023/06/03 03:40:47;;;;;;;15.13;8.13;;;9.70;1.00;;;;;;5120308;28;20826;-62
2023/06/03 03:43:19;;;;;;;10.47;8.00;;;9.70;1.00;;;;;;5120787;28;20467;-62
2023/06/03 03:45:47;;;;;;;9.77;7.83;;;9.70;4.30;;;;;;5120736;28;20460;-62
2023/06/03 03:48:15;;;;;;;10.13;8.07;;;9.70;2.90;;;;;;5120521;28;20460;-63
2023/06/03 03:50:47;;;;;;;11.17;8.20;;;9.70;14.90;;;;;;5119999;28;20456;-62
2023/06/03 03:53:16;;;;;;;9.10;8.00;;;9.70;34.10;;;;;;5120331;28;20464;-62
2023/06/03 03:55:45;;;;;;;13.70;8.03;;;9.70;12.70;;;;;;5120273;28;20751;-63
2023/06/03 03:58:28;;;;;;;9.90;7.67;;;9.70;18.90;;;;;;5120153;28;20460;-63
2023/06/03 04:00:57;;;;;;;12.87;9.53;;;9.70;44.60;;;;;;5120057;28;20497;-63
2023/06/03 04:03:25;;;;;;;8.63;7.53;;;9.70;50.90;;;;;;5119431;28;20829;-63
2023/06/03 04:05:53;;;;;;;10.77;8.00;;;9.70;22.20;;;;;;5120345;28;20459;-63
2023/06/03 04:08:40;;;;;;;12.67;7.87;;;9.70;1.20;;;;;;5120305;28;20459;-63
2023/06/03 04:11:10;;;;;;;9.20;7.20;;;9.80;2.00;;;;;;5110633;28;20470;-63
2023/06/03 04:13:40;;;;;;;11.00;7.70;;;9.80;99.90;;;;;;5116594;28;20498;-63
2023/06/03 04:16:12;;;;;;;8.87;7.53;;;9.80;99.90;;;;;;5119923;28;20554;-63
2023/06/03 04:18:42;;;;;;;12.70;8.67;;;9.80;99.90;;;;;;5119804;28;20719;-63
2023/06/03 04:21:19;;;;;;;14.57;6.90;;;9.90;99.90;;;;;;5119661;28;20459;-64
2023/06/03 04:23:46;;;;;;;11.90;7.40;;;9.90;99.90;;;;;;5119470;28;20479;-63
2023/06/03 04:26:16;;;;;;;9.10;7.23;;;9.90;99.90;;;;;;5119848;28;20724;-63
2023/06/03 04:28:44;;;;;;;10.90;8.07;;;9.90;99.90;;;;;;5119072;28;20459;-63
2023/06/03 04:31:12;;;;;;;11.37;7.13;;;10.00;99.90;;;;;;5119245;28;20455;-63
2023/06/03 04:33:39;;;;;;;7.63;6.90;;;10.00;99.90;;;;;;5119619;28;20740;-63
2023/06/03 04:36:06;;;;;;;7.90;6.27;;;10.10;99.90;;;;;;5119580;28;20470;-63
2023/06/03 04:38:34;;;;;;;7.73;6.40;;;10.10;66.40;;;;;;5118870;28;20903;-63
2023/06/03 04:41:02;;;;;;;7.27;6.03;;;10.10;56.60;;;;;;5118355;28;20513;-63
2023/06/03 04:43:29;;;;;;;8.23;6.83;;;10.20;16.40;;;;;;5118934;28;20470;-63
2023/06/03 04:46:00;;;;;;;8.60;6.43;;;10.20;37.10;;;;;;5119425;28;20554;-63
2023/06/03 04:48:27;;;;;;;8.90;6.50;;;10.30;1.00;;;;;;5119143;28;20495;-63
2023/06/03 04:50:54;;;;;;;8.93;7.07;;;10.30;1.00;;;;;;5118787;28;20463;-63
2023/06/03 04:53:25;;;;;;;7.30;6.33;;;10.40;1.00;;;;;;5119047;28;20551;-63
2023/06/03 04:55:52;;;;;;;7.53;6.43;;;10.40;1.00;;;;;;5119799;28;20849;-64
2023/06/03 04:58:20;;;;;;;7.17;5.97;;;10.50;1.00;;;;;;5119104;28;20982;-63
2023/06/03 05:00:48;;;;;;;8.90;6.10;;;10.60;1.00;;;;;;5118436;28;20456;-63
2023/06/03 05:03:17;;;;;;;7.27;5.30;;;10.70;99.90;;;;;;5118281;28;20523;-63
2023/06/03 05:05:45;;;;;;;8.47;5.47;;;10.70;1.00;;;;;;5118594;28;20776;-63
2023/06/03 05:08:12;;;;;;;8.90;5.40;;;10.90;99.90;;;;;;5118696;28;20494;-63
2023/06/03 05:10:43;;;;;;;8.03;5.03;;;10.90;99.90;;;;;;5118388;28;20869;-63
2023/06/03 05:13:10;;;;;;;5.13;4.60;;;11.00;99.90;;;;;;5118156;28;20462;-63
2023/06/03 05:15:39;;;;;;;9.90;5.37;;;11.10;63.50;;;;;;5117504;28;20791;-63
2023/06/03 05:18:06;;;;;;;6.87;4.80;;;11.10;16.40;;;;;;5118158;28;20857;-63
2023/06/03 05:20:35;;;;;;;6.77;5.60;;;11.10;11.50;;;;;;5118428;28;20466;-63
2023/06/03 05:23:02;;;;;;;5.87;4.40;;;11.20;1.00;;;;;;5118471;28;20555;-63
2023/06/03 05:25:29;;;;;;;4.73;4.30;;;11.30;1.00;;;;;;5118108;28;20455;-63
2023/06/03 05:27:56;;;;;;;9.77;5.53;;;11.40;1.00;;;;;;5117986;28;20469;-63
2023/06/03 05:30:23;;;;;;;6.63;5.30;;;11.50;1.00;;;;;;5118253;28;20455;-63
2023/06/03 05:32:50;;;;;;;8.10;5.13;;;11.50;1.00;;;;;;5118208;28;20467;-63
2023/06/03 05:35:19;;;;;;;5.10;4.60;;;11.70;1.00;;;;;;5117983;28;20932;-63
2023/06/03 05:37:47;;;;;;;5.13;4.53;;;11.80;1.00;;;;;;5116668;28;20503;-63
2023/06/03 05:40:14;;;;;;;9.13;5.03;;;12.00;1.00;;;;;;5117862;28;20468;-63
2023/06/03 05:42:42;;;;;;;7.57;4.63;;;12.20;1.00;;;;;;5117755;28;20491;-63
2023/06/03 05:45:10;;;;;;;7.17;5.37;;;12.40;1.00;;;;;;5117659;28;20467;-62
2023/06/03 05:47:37;;;;;;;6.23;4.37;;;12.70;1.00;;;;;;5117977;28;20467;-63
2023/06/03 05:50:04;;;;;;;5.57;4.00;;;12.80;99.90;;;;;;5118017;28;20461;-62
2023/06/03 05:52:32;;;;;;;7.37;3.80;;;13.10;1.00;;;;;;5117965;28;20491;-62
2023/06/03 05:55:00;;;;;;;6.07;3.90;;;13.30;1.00;;;;;;5117642;28;20493;-62
2023/06/03 05:57:28;;;;;;;6.17;4.60;;;13.50;1.00;;;;;;5118099;28;20793;-62
2023/06/03 05:59:55;;;;;;;5.37;3.87;;;13.70;1.00;;;;;;5117714;28;20554;-62
2023/06/03 06:02:22;;;;;;;6.13;4.20;;;14.00;45.00;;;;;;5117829;28;20780;-62
2023/06/03 06:04:49;;;;;;;5.80;3.47;;;13.90;99.90;;;;;;5118038;28;20452;-63
2023/06/03 06:07:16;;;;;;;6.90;3.97;;;13.90;99.90;;;;;;5117802;28;20805;-63
2023/06/03 06:09:44;;;;;;;6.63;3.83;;;14.10;99.90;;;;;;5118001;28;20459;-62
2023/06/03 06:12:12;;;;;;;4.60;3.07;;;14.30;99.90;;;;;;5116598;28;20466;-63
2023/06/03 06:14:39;;;;;;;5.57;3.83;;;14.60;99.90;;;;;;5116473;28;20533;-63
2023/06/03 06:17:07;;;;;;;4.97;3.23;;;14.80;1.00;;;;;;5117030;28;20451;-63
2023/06/03 06:19:36;;;;;;;6.37;3.43;;;15.10;1.00;;;;;;5116918;28;20465;-63
2023/06/03 06:22:04;;;;;;;5.30;3.40;;;15.40;31.60;;;;;;5117536;28;20462;-62
2023/06/03 06:24:34;;;;;;;8.43;3.43;;;15.50;99.90;;;;;;5115312;28;20550;-62
2023/06/03 06:27:01;;;;;;;4.93;3.80;;;15.80;1.00;;;;;;5120768;28;20548;-63
2023/06/03 06:29:29;;;;;;;5.27;3.67;;;16.00;1.00;;;;;;5121360;28;20546;-62
2023/06/03 06:31:57;;;;;;;5.00;3.80;;;16.10;1.00;;;;;;5121052;28;20447;-62
2023/06/03 06:34:29;;;;;;;5.60;3.23;;;16.40;99.90;;;;;;5121414;28;20533;-62
2023/06/03 06:36:57;;;;;;;5.40;3.70;;;16.50;99.90;;;;;;5121698;28;20755;-62
2023/06/03 06:39:49;;;;;;;4.23;3.30;;;16.60;99.90;;;;;;5121449;28;20461;-62
2023/06/03 06:42:32;;;;;;;5.00;3.00;;;16.60;1.90;;;;;;5108318;28;20489;-63
2023/06/03 06:45:10;;;;;;;3.60;3.30;;;16.70;99.90;;;;;;5103625;28;20505;-62
2023/06/03 06:47:38;;;;;;;3.90;3.43;;;16.70;99.90;;;;;;5121680;28;20463;-63
2023/06/03 06:50:08;;;;;;;5.40;3.40;;;17.00;99.90;;;;;;5121351;28;20952;-63
2023/06/03 06:52:36;;;;;;;4.03;3.60;;;16.90;1.00;;;;;;5121641;28;20467;-62
2023/06/03 06:55:06;;;;;;;5.87;3.17;;;17.20;99.90;;;;;;5121246;28;20498;-62
2023/06/03 06:57:35;;;;;;;5.30;3.73;;;17.30;99.90;;;;;;5121008;28;20546;-62
2023/06/03 07:00:04;;;;;;;5.37;3.93;;;16.90;1.00;;;;;;5120657;28;20548;-62
2023/06/03 07:02:31;;;;;;;4.40;3.40;;;16.90;1.00;;;;;;5120095;27;20566;-62
2023/06/03 07:04:58;;;;;;;4.17;3.20;;;17.00;1.00;;;;;;5119894;28;20453;-62
2023/06/03 07:07:27;;;;;;;3.93;2.93;;;17.30;9.20;;;;;;5118386;28;20467;-62
2023/06/03 07:09:55;;;;;;;5.30;3.57;;;17.80;46.80;;;;;;5120562;28;20457;-62
2023/06/03 07:12:22;;;;;;;4.90;3.00;;;18.30;1.00;;;;;;5120592;28;20459;-62
2023/06/03 07:14:49;;;;;;;4.00;3.70;;;18.70;1.00;;;;;;5120613;28;20578;-62
2023/06/03 07:17:17;;;;;;;3.50;3.10;;;18.90;95.80;;;;;;5120282;28;20461;-63
2023/06/03 07:19:45;;;;;;;4.50;3.40;;;19.30;99.90;;;;;;5120809;28;20466;-62
2023/06/03 07:22:12;;;;;;;3.30;3.00;;;19.00;1.00;;;;;;5120689;28;20459;-61
2023/06/03 07:24:40;;;;;;;6.10;4.00;;;19.00;1.00;;;;;;5120388;28;20955;-62
2023/06/03 07:27:09;;;;;;;3.80;3.50;;;19.00;1.00;;;;;;5120671;28;20555;-62
2023/06/03 07:29:38;;;;;;;5.97;3.20;;;19.30;1.00;;;;;;5120387;28;20490;-63
2023/06/03 07:32:08;;;;;;;4.83;3.07;;;19.20;1.00;;;;;;5120837;28;20459;-62
2023/06/03 07:34:38;;;;;;;5.70;3.10;;;19.50;1.00;;;;;;5120368;28;20560;-62
2023/06/03 07:37:12;;;;;;;3.80;3.00;;;19.50;1.00;;;;;;5119244;28;20467;-62
2023/06/03 07:39:39;;;;;;;4.83;3.20;;;19.70;99.90;;;;;;5120123;28;20456;-62
2023/06/03 07:42:15;;;;;;;3.20;2.90;;;20.20;99.90;;;;;;5120384;28;20456;-62
2023/06/03 07:44:44;;;;;;;3.37;3.00;;;19.40;99.90;;;;;;5119004;28;20864;-62
2023/06/03 07:47:14;;;;;;;3.00;2.80;;;19.30;99.90;;;;;;5107552;28;20470;-63
2023/06/03 07:49:45;;;;;;;5.93;3.40;;;19.50;99.90;;;;;;5118891;27;20472;-62
2023/06/03 07:52:18;;;;;;;3.53;2.63;;;19.60;99.90;;;;;;5119234;28;20536;-62
2023/06/03 07:54:45;;;;;;;4.30;3.10;;;20.20;99.90;;;;;;5116040;28;20924;-62
2023/06/03 07:57:14;;;;;;;3.47;3.07;;;20.50;99.90;;;;;;5116741;28;20460;-62
2023/06/03 07:59:48;;;;;;;3.57;2.43;;;20.60;99.90;;;;;;5119349;28;20632;-62
2023/06/03 08:02:16;;;;;;;3.43;2.93;;;20.80;99.90;;;;;;5119799;28;20544;-63
2023/06/03 08:04:45;;;;;;;5.27;3.03;;;20.50;99.90;;;;;;5115084;28;20550;-62
2023/06/03 08:07:12;;;;;;;3.10;2.80;;;20.40;99.90;;;;;;5118008;28;20478;-63
2023/06/03 08:09:41;;;;;;;3.83;2.70;;;20.80;99.90;;;;;;5116384;28;20914;-62
2023/06/03 08:12:09;;;;;;;4.27;3.00;;;21.00;99.90;;;;;;5116811;28;20758;-62
2023/06/03 08:14:38;;;;;;;4.33;2.87;;;20.60;99.90;;;;;;5117043;28;20750;-63
2023/06/03 08:17:11;;;;;;;3.50;2.97;;;20.50;99.90;;;;;;5117270;28;20460;-61
2023/06/03 08:19:39;;;;;;;4.53;2.83;;;20.80;99.90;;;;;;5116639;28;20907;-62
2023/06/03 08:22:22;;;;;;;2.77;2.30;;;21.00;99.90;;;;;;5117837;28;20459;-64
2023/06/03 08:24:50;;;;;;;3.00;2.70;;;20.80;99.90;;;;;;5117368;28;20495;-62
2023/06/03 08:27:17;;;;;;;2.70;2.50;;;20.90;99.90;;;;;;5119481;28;20471;-63
2023/06/03 08:29:46;;;;;;;3.47;2.60;;;21.30;99.90;;;;;;5117598;28;20486;-63
2023/06/03 08:32:13;;;;;;;3.70;2.97;;;20.90;99.90;;;;;;5119664;28;20465;-61
2023/06/03 08:34:40;;;;;;;4.30;2.63;;;20.80;99.90;;;;;;5119391;28;20889;-62
2023/06/03 08:37:09;;;;;;;11.30;3.00;;;21.30;99.90;;;;;;5119912;28;20455;-63
2023/06/03 08:39:36;;;;;;;5.20;2.83;;;21.90;99.90;;;;;;5120357;28;20460;-63
2023/06/03 08:42:07;;;;;;;3.00;2.27;;;21.70;99.90;;;;;;5120880;28;20466;-62
2023/06/03 08:44:42;;;;;;;4.60;2.57;;;22.00;99.90;;;;;;5118834;28;20881;-63
2023/06/03 08:47:13;;;;;;;2.90;2.60;;;21.50;99.90;;;;;;5111109;28;20463;-63
2023/06/03 08:49:50;;;;;;;4.47;3.17;;;21.60;99.90;;;;;;5118567;28;20463;-63
2023/06/03 08:52:20;;;;;;;6.90;2.63;;;21.60;99.90;;;;;;5119045;28;20785;-64
2023/06/03 08:54:49;;;;;;;6.20;3.17;;;21.80;99.90;;;;;;5118645;28;20486;-62
2023/06/03 08:57:19;;;;;;;4.80;3.07;;;21.90;99.90;;;;;;5118551;28;20555;-63
2023/06/03 08:59:52;;;;;;;8.13;2.87;;;22.00;99.90;;;;;;5118388;28;20455;-63
2023/06/03 09:02:19;;;;;;;3.97;2.73;;;22.50;99.90;;;;;;5117936;28;20578;-63
2023/06/03 09:04:50;;;;;;;5.10;2.67;;;22.60;99.90;;;;;;5117282;28;20619;-63
2023/06/03 09:07:21;;;;;;;3.20;2.90;;;22.70;99.90;;;;;;5118000;28;20462;-64
2023/06/03 09:09:51;;;;;;;3.80;3.07;;;23.20;99.90;;;;;;5118740;28;20463;-63
2023/06/03 09:12:18;;;;;;;3.27;2.90;;;22.90;99.90;;;;;;5118613;28;20440;-63
2023/06/03 09:14:47;;;;;;;3.63;3.33;;;23.40;99.90;;;;;;5118351;28;20491;-63
2023/06/03 09:17:15;;;;;;;3.63;2.43;;;23.60;99.90;;;;;;5116891;28;20765;-63
2023/06/03 09:19:42;;;;;;;4.53;2.67;;;22.80;99.90;;;;;;5116953;28;20939;-64
2023/06/03 09:22:10;;;;;;;3.10;2.80;;;22.90;99.90;;;;;;5117001;28;20466;-63
2023/06/03 09:24:39;;;;;;;4.90;2.60;;;23.20;99.90;;;;;;5116086;28;20530;-62
2023/06/03 09:27:07;;;;;;;3.63;3.30;;;23.10;99.90;;;;;;5115162;28;20544;-63
2023/06/03 09:29:34;;;;;;;4.10;2.30;;;23.10;99.90;;;;;;5114116;28;20464;-63
2023/06/03 09:32:03;;;;;;;6.07;3.40;;;23.30;99.90;;;;;;5115801;28;20555;-63
2023/06/03 09:34:30;;;;;;;3.03;2.80;;;23.10;99.90;;;;;;5115922;28;20455;-64
2023/06/03 09:37:06;;;;;;;2.83;2.60;;;22.80;99.90;;;;;;5103405;28;21003;-64
2023/06/03 09:39:35;;;;;;;3.60;2.90;;;22.70;99.90;;;;;;5105076;28;20845;-63
2023/06/03 09:42:04;;;;;;;2.90;2.70;;;23.10;99.90;;;;;;5113957;28;20498;-63
2023/06/03 09:44:45;;;;;;;5.33;3.00;;;23.40;99.90;;;;;;5114909;28;20459;-64
2023/06/03 09:47:13;;;;;;;3.63;3.30;;;23.40;99.90;;;;;;5115241;28;20459;-63
2023/06/03 09:49:41;;;;;;;3.33;2.70;;;23.90;99.90;;;;;;5115386;28;20455;-63
2023/06/03 09:52:10;;;;;;;3.43;3.13;;;23.40;99.90;;;;;;5114899;28;20455;-64
2023/06/03 09:54:37;;;;;;;2.97;2.73;;;22.40;99.90;;;;;;5115114;28;20554;-64
2023/06/03 09:57:13;;;;;;;3.43;3.07;;;22.90;99.90;;;;;;5116854;28;20491;-62
2023/06/03 09:59:43;;;;;;;4.10;3.17;;;23.50;99.90;;;;;;5116646;28;20533;-62
2023/06/03 10:02:12;;;;;;;3.83;2.80;;;24.20;99.90;;;;;;5115777;28;20476;-63
2023/06/03 10:04:40;;;;;;;4.20;3.00;;;24.30;99.90;;;;;;5116129;28;20749;-63
2023/06/03 10:07:09;;;;;;;3.63;2.87;;;23.70;99.90;;;;;;5116865;28;20447;-63
2023/06/03 10:09:37;;;;;;;3.30;3.00;;;24.30;99.90;;;;;;5116090;28;20797;-64
2023/06/03 10:12:07;;;;;;;3.67;3.37;;;24.40;99.90;;;;;;5115184;28;20568;-64
2023/06/03 10:14:45;;;;;;;3.57;3.10;;;24.60;99.90;;;;;;5115962;28;20467;-63
2023/06/03 10:17:14;;;;;;;4.80;2.93;;;24.00;99.90;;;;;;5115895;28;20557;-63
2023/06/03 10:19:46;;;;;;;3.47;3.17;;;24.30;99.90;;;;;;5117834;28;20464;-63
2023/06/03 10:22:16;;;;;;;2.70;2.50;;;24.20;99.90;;;;;;5119511;28;20459;-63
2023/06/03 10:24:44;;;;;;;4.67;2.70;;;24.50;99.90;;;;;;5118403;28;20489;-63
2023/06/03 10:27:13;;;;;;;3.37;2.83;;;24.20;99.90;;;;;;5117667;28;20451;-63
2023/06/03 10:29:43;;;;;;;4.43;2.90;;;24.00;99.90;;;;;;5118181;28;20546;-63
2023/06/03 10:32:13;;;;;;;3.47;3.17;;;24.70;99.90;;;;;;5117941;28;20554;-63
2023/06/03 10:34:42;;;;;;;5.83;3.10;;;25.20;99.90;;;;;;5117006;28;20945;-67
2023/06/03 10:37:12;;;;;;;3.53;2.60;;;25.50;99.90;;;;;;5117599;28;21003;-64
2023/06/03 10:39:40;;;;;;;3.97;2.80;;;24.30;99.90;;;;;;5117312;28;20455;-62
2023/06/03 10:42:09;;;;;;;3.10;2.90;;;24.50;99.90;;;;;;5117140;28;20456;-62
2023/06/03 10:44:37;;;;;;;4.23;2.43;;;24.80;99.90;;;;;;5117238;28;20463;-63
2023/06/03 10:47:09;;;;;;;5.50;2.97;;;24.50;99.90;;;;;;5117311;28;20913;-63
2023/06/03 10:49:38;;;;;;;8.63;2.57;;;23.80;99.90;;;;;;5117452;28;20459;-62
2023/06/03 10:52:33;;;;;;;4.07;3.07;;;24.60;99.90;;;;;;5117512;28;20884;-61
2023/06/03 10:55:10;;;;;;;2.90;2.30;;;23.80;99.90;;;;;;5117245;28;20963;-62
2023/06/03 10:57:46;;;;;;;3.47;3.17;;;24.20;99.90;;;;;;5117350;28;20499;-62
2023/06/03 11:00:15;;;;;;;4.77;2.77;;;25.00;99.90;;;;;;5117562;28;20467;-62
2023/06/03 11:03:08;;;;;;;4.00;3.47;;;24.70;99.90;;;;;;5116957;28;20484;-63
2023/06/03 11:05:35;;;;;;;3.30;2.60;;;25.40;99.90;;;;;;5115927;28;20467;-62
2023/06/03 11:08:03;;;;;;;5.60;3.20;;;24.90;99.90;;;;;;5116664;28;20463;-62
2023/06/03 11:10:45;;;;;;;4.10;3.60;;;25.10;99.90;;;;;;5117473;28;20897;-62
2023/06/03 11:13:39;;;;;;;5.77;3.27;;;24.20;99.90;;;;;;5118754;28;20596;-62
2023/06/03 11:16:06;;;;;;;3.27;2.97;;;23.90;99.90;;;;;;5121215;28;20491;-63
2023/06/03 11:18:35;;;;;;;3.07;2.70;;;24.60;99.90;;;;;;5120564;28;20459;-62
2023/06/03 11:21:02;;;;;;;2.97;2.77;;;25.00;99.90;;;;;;5119960;28;20549;-63
2023/06/03 11:23:43;;;;;;;3.90;3.10;;;25.60;99.90;;;;;;5116453;28;20463;-63
2023/06/03 11:26:33;;;;;;;5.00;2.90;;;25.60;99.90;;;;;;5112368;27;20468;-62
2023/06/03 11:29:01;;;;;;;4.97;2.80;;;25.90;99.90;;;;;;5113016;28;20478;-63
2023/06/03 11:31:29;;;;;;;4.57;3.30;;;26.00;99.90;;;;;;5119143;28;20478;-64
2023/06/03 11:34:25;;;;;;;3.20;2.90;;;26.40;99.90;;;;;;5113149;28;20535;-64
2023/06/03 11:36:52;;;;;;;5.60;3.07;;;26.40;99.90;;;;;;5098784;28;20519;-64
2023/06/03 11:39:20;;;;;;;10.20;3.23;;;26.50;99.90;;;;;;5117433;28;20455;-63
2023/06/03 11:42:08;;;;;;;4.60;3.30;;;26.70;1.00;;;;;;5120373;28;20452;-63
2023/06/03 11:44:36;;;;;;;3.13;2.70;;;27.00;99.90;;;;;;5118900;28;20470;-62
2023/06/03 11:47:04;;;;;;;3.93;2.70;;;25.40;1.00;;;;;;5118882;28;20751;-63
2023/06/03 11:49:35;;;;;;;3.60;2.80;;;24.80;1.00;;;;;;5118596;28;20488;-62
2023/06/03 11:52:03;;;;;;;3.20;2.90;;;24.60;1.00;;;;;;5117976;28;20465;-62
2023/06/03 11:54:30;;;;;;;3.53;2.90;;;24.50;1.00;;;;;;5117034;28;20459;-62
2023/06/03 11:56:59;;;;;;;4.20;3.20;;;24.70;99.90;;;;;;5118272;28;20544;-62
2023/06/03 11:59:32;;;;;;;2.43;2.23;;;25.60;1.00;;;;;;5108301;28;20464;-62
2023/06/03 12:02:00;;;;;;;2.93;2.73;;;26.50;1.00;;;;;;5098641;28;20488;-63
2023/06/03 12:04:27;;;;;;;3.43;2.50;;;27.00;1.00;;;;;;5102548;28;20447;-63
2023/06/03 12:06:57;;;;;;;5.00;3.20;;;26.30;99.90;;;;;;5114662;28;20452;-62
2023/06/03 12:09:26;;;;;;;3.60;2.97;;;26.00;99.90;;;;;;5117037;28;20463;-65
2023/06/03 12:11:54;;;;;;;3.97;3.20;;;25.50;99.90;;;;;;5118163;28;20463;-63
2023/06/03 12:14:32;;;;;;;9.73;3.50;;;25.30;99.90;;;;;;5118407;28;20456;-62
2023/06/03 12:17:09;;;;;;;4.23;2.93;;;26.00;99.90;;;;;;5115842;28;20769;-62
2023/06/03 12:19:38;;;;;;;4.33;2.53;;;26.70;99.90;;;;;;5115380;28;20457;-62
2023/06/03 12:22:08;;;;;;;3.60;3.30;;;26.70;1.00;;;;;;5120593;28;20505;-63
2023/06/03 12:24:36;;;;;;;3.30;3.00;;;26.70;99.90;;;;;;5115552;28;20752;-63
2023/06/03 12:27:18;;;;;;;3.50;2.70;;;26.30;1.00;;;;;;5119760;28;20712;-61
2023/06/03 12:29:47;;;;;;;4.30;2.63;;;26.10;1.00;;;;;;5118012;28;20550;-62
2023/06/03 12:32:15;;;;;;;3.40;3.10;;;26.00;1.00;;;;;;5116563;28;20452;-60
2023/06/03 12:34:43;;;;;;;3.50;2.60;;;25.00;1.00;;;;;;5116884;28;20554;-63
2023/06/03 12:37:13;;;;;;;3.43;3.00;;;24.70;99.90;;;;;;5115510;28;20499;-62
2023/06/03 12:39:49;;;;;;;4.03;2.70;;;25.70;99.90;;;;;;5118145;28;20869;-62
2023/06/03 12:42:17;;;;;;;3.50;3.20;;;26.20;99.90;;;;;;5117805;28;20840;-62
2023/06/03 12:44:52;;;;;;;3.07;2.70;;;26.20;1.00;;;;;;5117562;28;20454;-62
2023/06/03 12:47:21;;;;;;;4.70;2.73;;;26.70;1.00;;;;;;5118493;28;20448;-63
2023/06/03 12:50:05;;;;;;;2.83;2.60;;;26.70;98.10;;;;;;5119741;28;20451;-62
2023/06/03 12:52:36;;;;;;;6.37;2.80;;;26.20;1.00;;;;;;5116388;28;20462;-62
2023/06/03 12:55:06;;;;;;;2.77;2.43;;;26.50;1.00;;;;;;5114640;28;20784;-60
2023/06/03 12:57:33;;;;;;;3.50;3.10;;;26.80;1.00;;;;;;5115989;28;20611;-61
2023/06/03 13:00:09;;;;;;;2.60;2.40;;;27.00;1.00;;;;;;5096217;28;20464;-65
2023/06/03 13:02:37;;;;;;;2.60;2.40;;;26.80;1.00;;;;;;5112192;28;20942;-62